createdAt,value
2023-04-28T00:00:03.897Z,28.77
2023-04-28T00:01:03.801Z,28.72
2023-04-28T00:02:03.844Z,28.74
2023-04-28T00:03:04.014Z,28.69
2023-04-28T00:04:04.220Z,28.71
2023-04-28T00:05:04.111Z,28.72
2023-04-28T00:06:04.067Z,28.69
2023-04-28T00:07:04.155Z,28.72
2023-04-28T00:08:04.202Z,28.72
2023-04-28T00:09:04.266Z,28.71
2023-04-28T00:10:04.362Z,28.69
2023-04-28T00:11:04.478Z,28.71
2023-04-28T00:12:04.447Z,28.71
2023-04-28T00:13:04.523Z,28.72
2023-04-28T00:14:04.580Z,28.74
2023-04-28T00:15:04.978Z,28.74
2023-04-28T00:16:04.711Z,28.72
2023-04-28T00:17:04.767Z,28.74
2023-04-28T00:18:04.891Z,28.75
2023-04-28T00:19:04.902Z,28.72
2023-04-28T00:20:04.942Z,28.72
2023-04-28T00:21:05.016Z,28.72
2023-04-28T00:22:05.042Z,28.72
2023-04-28T00:23:05.130Z,28.73
2023-04-28T00:24:05.247Z,28.71
2023-04-28T00:25:05.214Z,28.71
2023-04-28T00:26:05.269Z,28.75
2023-04-28T00:27:05.335Z,28.73
2023-04-28T00:28:05.404Z,28.71
2023-04-28T00:29:05.451Z,28.73
2023-04-28T00:30:05.873Z,28.71
2023-04-28T00:31:05.593Z,28.76
2023-04-28T00:32:05.704Z,28.66
2023-04-28T00:33:05.723Z,28.74
2023-04-28T00:34:05.709Z,28.70
2023-04-28T00:35:05.885Z,28.69
2023-04-28T00:36:05.815Z,28.70
2023-04-28T00:37:05.817Z,28.71
2023-04-28T00:38:05.883Z,28.78
2023-04-28T00:39:05.943Z,28.70
2023-04-28T00:40:05.961Z,28.72
2023-04-28T00:41:06.035Z,28.72
2023-04-28T00:42:06.075Z,28.70
2023-04-28T00:43:06.150Z,28.69
2023-04-28T00:44:06.177Z,28.70
2023-04-28T00:45:06.420Z,28.74
2023-04-28T00:46:06.338Z,28.73
2023-04-28T00:47:06.348Z,28.74
2023-04-28T00:48:06.446Z,28.72
2023-04-28T00:49:06.465Z,28.73
2023-04-28T00:50:06.600Z,28.70
2023-04-28T00:51:06.598Z,28.70
2023-04-28T00:52:06.593Z,28.74
2023-04-28T00:53:06.630Z,28.74
2023-04-28T00:54:06.632Z,28.79
2023-04-28T00:55:06.922Z,28.73
2023-04-28T00:56:06.752Z,28.76
2023-04-28T00:57:06.836Z,28.73
2023-04-28T00:58:06.853Z,28.77
2023-04-28T00:59:06.908Z,28.76
2023-04-28T01:00:07.421Z,28.74
2023-04-28T01:01:06.992Z,28.73
2023-04-28T01:02:07.160Z,28.76
2023-04-28T01:03:07.250Z,28.71
2023-04-28T01:04:07.477Z,28.77
2023-04-28T01:05:07.191Z,28.70
2023-04-28T01:06:07.397Z,28.73
2023-04-28T01:07:07.282Z,28.74
2023-04-28T01:08:07.351Z,28.67
2023-04-28T01:09:07.354Z,28.78
2023-04-28T01:10:07.402Z,28.71
2023-04-28T01:11:07.479Z,28.74
2023-04-28T01:12:07.489Z,28.70
2023-04-28T01:13:07.535Z,28.74
2023-04-28T01:14:07.645Z,28.71
2023-04-28T01:15:07.641Z,28.71
2023-04-28T01:16:07.764Z,28.71
2023-04-28T01:17:07.751Z,28.74
2023-04-28T01:18:07.821Z,28.75
2023-04-28T01:19:07.862Z,28.75
2023-04-28T01:20:08.402Z,28.74
2023-04-28T01:21:07.916Z,28.73
2023-04-28T01:22:07.955Z,28.77
2023-04-28T01:23:08.040Z,28.70
2023-04-28T01:24:08.072Z,28.71
2023-04-28T01:25:08.139Z,28.69
2023-04-28T01:26:08.393Z,28.71
2023-04-28T01:27:08.205Z,28.71
2023-04-28T01:28:08.254Z,28.74
2023-04-28T01:29:08.281Z,28.72
2023-04-28T01:30:08.398Z,28.73
2023-04-28T01:31:08.489Z,28.74
2023-04-28T01:32:08.441Z,28.71
2023-04-28T01:33:08.537Z,28.74
2023-04-28T01:34:08.522Z,28.76
2023-04-28T01:35:08.590Z,28.72
2023-04-28T01:36:08.610Z,28.78
2023-04-28T01:37:08.662Z,28.76
2023-04-28T01:38:08.735Z,28.76
2023-04-28T01:39:08.784Z,28.72
2023-04-28T01:40:08.779Z,28.75
2023-04-28T01:41:08.868Z,28.75
2023-04-28T01:42:08.901Z,28.75
2023-04-28T01:43:08.929Z,28.79
2023-04-28T01:44:09.044Z,28.72
2023-04-28T01:45:09.011Z,28.75
2023-04-28T01:46:09.124Z,28.72
2023-04-28T01:47:09.208Z,28.75
2023-04-28T01:48:09.191Z,28.73
2023-04-28T01:49:09.268Z,28.79
2023-04-28T01:50:09.291Z,28.73
2023-04-28T01:51:09.330Z,28.71
2023-04-28T01:52:09.381Z,28.72
2023-04-28T01:53:09.410Z,28.72
2023-04-28T01:54:09.438Z,28.72
2023-04-28T01:55:09.596Z,28.76
2023-04-28T01:56:09.543Z,28.70
2023-04-28T01:57:09.586Z,28.72
2023-04-28T01:58:09.659Z,28.75
2023-04-28T01:59:09.715Z,28.73
2023-04-28T02:00:09.775Z,28.76
2023-04-28T02:01:09.876Z,28.75
2023-04-28T02:02:09.848Z,28.76
2023-04-28T02:03:10.044Z,28.69
2023-04-28T02:04:10.061Z,28.76
2023-04-28T02:05:09.999Z,28.76
2023-04-28T02:06:10.041Z,28.70
2023-04-28T02:07:10.107Z,28.72
2023-04-28T02:08:10.173Z,28.73
2023-04-28T02:09:10.196Z,28.76
2023-04-28T02:10:10.251Z,28.73
2023-04-28T02:11:10.333Z,28.76
2023-04-28T02:12:10.404Z,28.78
2023-04-28T02:13:10.407Z,28.73
2023-04-28T02:14:10.479Z,28.73
2023-04-28T02:15:10.528Z,28.76
2023-04-28T02:16:10.593Z,28.78
2023-04-28T02:17:10.604Z,28.72
2023-04-28T02:18:10.649Z,28.76
2023-04-28T02:19:10.680Z,28.77
2023-04-28T02:20:10.742Z,28.76
2023-04-28T02:21:10.809Z,28.73
2023-04-28T02:22:10.807Z,28.70
2023-04-28T02:23:10.892Z,28.77
2023-04-28T02:24:10.951Z,28.76
2023-04-28T02:25:10.983Z,28.73
2023-04-28T02:26:11.034Z,28.73
2023-04-28T02:27:11.084Z,28.74
2023-04-28T02:28:11.102Z,28.76
2023-04-28T02:29:11.152Z,28.73
2023-04-28T02:30:11.225Z,28.74
2023-04-28T02:31:11.296Z,28.76
2023-04-28T02:32:11.302Z,28.72
2023-04-28T02:33:11.393Z,28.77
2023-04-28T02:34:11.413Z,28.78
2023-04-28T02:35:11.464Z,28.78
2023-04-28T02:36:11.492Z,28.74
2023-04-28T02:37:11.498Z,28.77
2023-04-28T02:38:11.563Z,28.77
2023-04-28T02:39:11.598Z,28.74
2023-04-28T02:40:11.692Z,28.74
2023-04-28T02:41:11.933Z,28.75
2023-04-28T02:42:11.770Z,28.77
2023-04-28T02:43:11.794Z,28.78
2023-04-28T02:44:11.850Z,28.77
2023-04-28T02:45:11.883Z,28.77
2023-04-28T02:46:12.013Z,28.78
2023-04-28T02:47:12.007Z,28.77
2023-04-28T02:48:12.023Z,28.77
2023-04-28T02:49:12.057Z,28.77
2023-04-28T02:50:12.117Z,28.74
2023-04-28T02:51:12.398Z,28.77
2023-04-28T02:52:12.189Z,28.74
2023-04-28T02:53:12.225Z,28.79
2023-04-28T02:54:12.296Z,28.75
2023-04-28T02:55:12.329Z,28.72
2023-04-28T02:56:12.380Z,28.75
2023-04-28T02:57:12.405Z,28.78
2023-04-28T02:58:12.471Z,28.82
2023-04-28T02:59:12.517Z,28.77
2023-04-28T03:00:12.556Z,28.78
2023-04-28T03:01:12.704Z,28.79
2023-04-28T03:02:12.668Z,28.81
2023-04-28T03:03:13.008Z,28.81
2023-04-28T03:04:12.876Z,28.79
2023-04-28T03:05:12.785Z,28.75
2023-04-28T03:06:12.844Z,28.79
2023-04-28T03:07:12.868Z,28.75
2023-04-28T03:08:12.940Z,28.78
2023-04-28T03:09:12.941Z,28.78
2023-04-28T03:10:12.990Z,28.80
2023-04-28T03:11:13.464Z,28.79
2023-04-28T03:12:13.117Z,28.75
2023-04-28T03:13:13.151Z,28.80
2023-04-28T03:14:13.244Z,28.79
2023-04-28T03:15:14.209Z,28.78
2023-04-28T03:16:13.350Z,28.79
2023-04-28T03:17:13.284Z,28.78
2023-04-28T03:18:13.366Z,28.80
2023-04-28T03:19:13.383Z,28.80
2023-04-28T03:20:13.427Z,28.79
2023-04-28T03:21:13.559Z,28.78
2023-04-28T03:22:13.481Z,28.82
2023-04-28T03:23:13.495Z,28.82
2023-04-28T03:24:13.634Z,28.82
2023-04-28T03:25:13.522Z,28.79
2023-04-28T03:26:13.560Z,28.82
2023-04-28T03:27:13.563Z,28.83
2023-04-28T03:28:13.594Z,28.82
2023-04-28T03:29:13.595Z,28.82
2023-04-28T03:30:13.612Z,28.78
2023-04-28T03:31:13.632Z,28.79
2023-04-28T03:32:13.684Z,28.85
2023-04-28T03:33:13.666Z,28.82
2023-04-28T03:34:13.838Z,28.80
2023-04-28T03:35:13.728Z,28.79
2023-04-28T03:36:13.718Z,28.79
2023-04-28T03:37:13.775Z,28.83
2023-04-28T03:38:13.796Z,28.83
2023-04-28T03:39:13.775Z,28.83
2023-04-28T03:40:13.791Z,28.82
2023-04-28T03:41:13.837Z,28.84
2023-04-28T03:42:13.823Z,28.86
2023-04-28T03:43:13.795Z,28.80
2023-04-28T03:44:13.890Z,28.85
2023-04-28T03:45:13.821Z,28.82
2023-04-28T03:46:13.854Z,28.86
2023-04-28T03:47:13.837Z,28.87
2023-04-28T03:48:13.884Z,28.85
2023-04-28T03:49:13.827Z,28.85
2023-04-28T03:50:13.822Z,28.86
2023-04-28T03:51:13.825Z,28.91
2023-04-28T03:52:13.846Z,28.85
2023-04-28T03:53:13.861Z,28.84
2023-04-28T03:54:13.968Z,28.84
2023-04-28T03:55:13.865Z,28.87
2023-04-28T03:56:13.967Z,28.87
2023-04-28T03:57:13.950Z,28.85
2023-04-28T03:58:13.990Z,28.90
2023-04-28T03:59:13.991Z,28.90
2023-04-28T04:00:14.017Z,28.85
2023-04-28T04:01:14.538Z,28.88
2023-04-28T04:02:14.023Z,28.85
2023-04-28T04:03:14.289Z,28.90
2023-04-28T04:04:14.330Z,28.85
2023-04-28T04:05:14.153Z,28.85
2023-04-28T04:06:14.461Z,28.91
2023-04-28T04:07:14.048Z,28.93
2023-04-28T04:08:14.049Z,28.87
2023-04-28T04:09:14.052Z,28.90
2023-04-28T04:10:14.070Z,28.88
2023-04-28T04:11:14.480Z,28.88
2023-04-28T04:12:14.039Z,28.84
2023-04-28T04:13:14.098Z,28.90
2023-04-28T04:14:14.192Z,28.87
2023-04-28T04:15:14.067Z,28.90
2023-04-28T04:16:14.467Z,28.88
2023-04-28T04:17:14.058Z,28.88
2023-04-28T04:18:14.063Z,28.91
2023-04-28T04:19:14.068Z,28.88
2023-04-28T04:20:14.036Z,28.84
2023-04-28T04:21:14.536Z,28.87
2023-04-28T04:22:14.106Z,28.91
2023-04-28T04:23:14.078Z,28.88
2023-04-28T04:24:14.182Z,28.88
2023-04-28T04:25:14.043Z,28.92
2023-04-28T04:26:14.081Z,28.91
2023-04-28T04:27:14.057Z,28.91
2023-04-28T04:28:14.044Z,28.90
2023-04-28T04:29:14.072Z,28.88
2023-04-28T04:30:14.071Z,28.91
2023-04-28T04:31:14.095Z,28.92
2023-04-28T04:32:14.057Z,28.92
2023-04-28T04:33:14.041Z,28.94
2023-04-28T04:34:14.125Z,28.94
2023-04-28T04:35:14.099Z,28.92
2023-04-28T04:36:14.055Z,28.92
2023-04-28T04:37:14.054Z,28.91
2023-04-28T04:38:14.062Z,28.92
2023-04-28T04:39:14.067Z,28.92
2023-04-28T04:40:14.079Z,28.93
2023-04-28T04:41:14.063Z,28.92
2023-04-28T04:42:24.180Z,28.94
2023-04-28T04:43:15.058Z,28.95
2023-04-28T04:44:14.473Z,28.96
2023-04-28T04:45:14.053Z,28.92
2023-04-28T04:46:14.521Z,28.95
2023-04-28T04:47:14.090Z,28.97
2023-04-28T04:48:14.110Z,28.99
2023-04-28T04:49:14.009Z,29.28
2023-04-28T04:50:14.065Z,29.78
2023-04-28T04:51:14.032Z,29.65
2023-04-28T04:52:14.022Z,30.01
2023-04-28T04:53:16.268Z,29.82
2023-04-28T04:54:14.284Z,30.07
2023-04-28T04:55:14.190Z,31.41
2023-04-28T04:56:14.146Z,29.98
2023-04-28T04:57:14.165Z,30.01
2023-04-28T04:58:14.169Z,29.88
2023-04-28T04:59:14.160Z,29.92
2023-04-28T05:00:14.189Z,30.07
2023-04-28T05:01:14.198Z,31.09
2023-04-28T05:02:14.233Z,30.82
2023-04-28T05:03:14.254Z,31.39
2023-04-28T05:04:14.388Z,32.11
2023-04-28T05:06:15.492Z,35.41
2023-04-28T05:07:14.164Z,34.91
2023-04-28T05:08:14.131Z,34.96
2023-04-28T05:09:14.148Z,36.25
2023-04-28T05:10:14.152Z,37.06
2023-04-28T05:11:14.516Z,41.95
2023-04-28T05:12:14.138Z,35.71
2023-04-28T05:13:14.144Z,35.16
2023-04-28T05:14:14.237Z,34.37
2023-04-28T05:15:14.130Z,34.30
2023-04-28T05:16:14.201Z,35.35
2023-04-28T05:17:14.130Z,35.83
2023-04-28T05:18:14.148Z,36.56
2023-04-28T05:19:14.090Z,38.47
2023-04-28T05:20:14.101Z,37.96
2023-04-28T05:21:14.094Z,36.12
2023-04-28T05:22:14.130Z,35.44
2023-04-28T05:23:14.182Z,36.05
2023-04-28T05:24:14.405Z,36.51
2023-04-28T05:25:14.250Z,36.71
2023-04-28T05:26:14.266Z,36.31
2023-04-28T05:27:14.287Z,36.93
2023-04-28T05:28:14.275Z,36.35
2023-04-28T05:29:14.285Z,36.99
2023-04-28T05:30:14.344Z,36.47
2023-04-28T05:31:14.384Z,36.51
2023-04-28T05:32:14.496Z,36.91
2023-04-28T05:33:14.278Z,36.96
2023-04-28T05:34:14.489Z,36.97
2023-04-28T05:35:14.324Z,36.62
2023-04-28T05:36:14.339Z,36.44
2023-04-28T05:37:14.349Z,36.66
2023-04-28T05:38:14.384Z,37.19
2023-04-28T05:39:14.377Z,36.63
2023-04-28T05:40:14.305Z,36.45
2023-04-28T05:41:14.336Z,39.10
2023-04-28T05:42:14.312Z,36.97
2023-04-28T05:43:14.331Z,36.50
2023-04-28T05:44:14.638Z,36.54
2023-04-28T05:45:14.330Z,36.91
2023-04-28T05:46:26.140Z,37.28
2023-04-28T05:47:15.299Z,38.17
2023-04-28T05:48:14.322Z,36.22
2023-04-28T05:49:14.290Z,35.79
2023-04-28T05:50:14.326Z,36.31
2023-04-28T05:51:14.286Z,37.17
2023-04-28T05:52:14.290Z,37.88
2023-04-28T05:53:14.297Z,36.26
2023-04-28T05:54:14.572Z,36.29
2023-04-28T05:55:14.239Z,37.95
2023-04-28T05:56:14.264Z,36.17
2023-04-28T05:57:14.600Z,35.85
2023-04-28T05:58:14.255Z,36.07
2023-04-28T05:59:14.408Z,36.55
2023-04-28T06:00:14.263Z,37.15
2023-04-28T06:01:14.262Z,36.24
2023-04-28T06:02:14.293Z,36.22
2023-04-28T06:03:14.420Z,36.53
2023-04-28T06:04:14.599Z,36.10
2023-04-28T06:05:14.514Z,35.79
2023-04-28T06:06:14.237Z,35.73
2023-04-28T06:07:14.522Z,37.75
2023-04-28T06:08:14.197Z,36.75
2023-04-28T06:09:14.324Z,36.47
2023-04-28T06:10:14.136Z,36.81
2023-04-28T06:11:14.163Z,36.25
2023-04-28T06:12:14.164Z,35.48
2023-04-28T06:13:14.710Z,35.39
2023-04-28T06:14:14.315Z,35.27
2023-04-28T06:15:14.160Z,35.24
2023-04-28T06:16:14.246Z,35.19
2023-04-28T06:17:14.260Z,35.14
2023-04-28T06:18:14.266Z,35.01
2023-04-28T06:19:14.349Z,35.01
2023-04-28T06:20:14.433Z,34.91
2023-04-28T06:21:14.387Z,34.96
2023-04-28T06:22:14.503Z,34.95
2023-04-28T06:23:14.516Z,34.94
2023-04-28T06:24:14.703Z,34.91
2023-04-28T06:25:14.633Z,34.88
2023-04-28T06:26:16.274Z,34.81
2023-04-28T06:27:15.013Z,34.85
2023-04-28T06:28:14.653Z,34.74
2023-04-28T06:29:14.606Z,34.72
2023-04-28T06:30:14.615Z,34.74
2023-04-28T06:31:14.666Z,34.76
2023-04-28T06:32:15.041Z,34.70
2023-04-28T06:33:14.611Z,34.67
2023-04-28T06:34:14.854Z,34.66
2023-04-28T06:35:14.580Z,34.68
2023-04-28T06:36:14.604Z,34.64
2023-04-28T06:37:14.563Z,34.62
2023-04-28T06:38:14.615Z,34.63
2023-04-28T06:39:14.575Z,34.63
2023-04-28T06:40:14.604Z,34.54
2023-04-28T06:41:14.599Z,34.55
2023-04-28T06:42:14.608Z,34.56
2023-04-28T06:43:14.603Z,34.56
2023-04-28T06:44:15.772Z,34.56
2023-04-28T06:45:14.585Z,34.54
2023-04-28T06:46:14.557Z,34.54
2023-04-28T06:47:14.533Z,34.52
2023-04-28T06:48:14.597Z,34.47
2023-04-28T06:49:14.556Z,34.48
2023-04-28T06:50:14.524Z,35.10
2023-04-28T06:51:14.518Z,35.65
2023-04-28T06:52:14.510Z,36.27
2023-04-28T06:53:14.518Z,35.02
2023-04-28T06:54:14.531Z,35.00
2023-04-28T06:55:14.992Z,34.75
2023-04-28T06:56:14.492Z,34.87
2023-04-28T06:57:14.454Z,35.57
2023-04-28T06:58:14.715Z,34.75
2023-04-28T06:59:14.460Z,34.77
2023-04-28T07:00:14.464Z,34.71
2023-04-28T07:01:14.457Z,35.11
2023-04-28T07:02:14.477Z,34.71
2023-04-28T07:03:14.585Z,34.93
2023-04-28T07:04:14.743Z,34.71
2023-04-28T07:05:16.377Z,34.68
2023-04-28T07:06:14.566Z,34.73
2023-04-28T07:07:14.594Z,34.70
2023-04-28T07:08:14.612Z,34.71
2023-04-28T07:09:14.632Z,34.70
2023-04-28T07:10:14.701Z,34.70
2023-04-28T07:11:14.669Z,34.70
2023-04-28T07:12:14.678Z,34.69
2023-04-28T07:13:14.734Z,34.65
2023-04-28T07:14:14.895Z,34.64
2023-04-28T07:15:14.782Z,34.64
2023-04-28T07:16:14.800Z,34.67
2023-04-28T07:17:14.761Z,34.75
2023-04-28T07:18:14.838Z,34.79
2023-04-28T07:19:14.846Z,34.68
2023-04-28T07:20:14.889Z,34.72
2023-04-28T07:21:14.869Z,34.68
2023-04-28T07:22:14.900Z,34.65
2023-04-28T07:23:14.871Z,34.68
2023-04-28T07:24:15.100Z,34.70
2023-04-28T07:25:15.066Z,34.67
2023-04-28T07:26:14.925Z,34.63
2023-04-28T07:27:15.025Z,34.70
2023-04-28T07:28:14.938Z,34.70
2023-04-28T07:29:14.981Z,34.73
2023-04-28T07:30:26.493Z,34.71
2023-04-28T07:31:15.952Z,34.71
2023-04-28T07:32:15.160Z,34.69
2023-04-28T07:33:14.997Z,34.70
2023-04-28T07:34:15.130Z,34.72
2023-04-28T07:35:14.970Z,34.72
2023-04-28T07:36:14.934Z,35.05
2023-04-28T07:37:14.979Z,34.95
2023-04-28T07:38:14.949Z,34.88
2023-04-28T07:39:14.902Z,34.80
2023-04-28T07:40:14.971Z,34.83
2023-04-28T07:41:14.924Z,34.77
2023-04-28T07:42:15.044Z,34.91
2023-04-28T07:43:14.877Z,34.83
2023-04-28T07:44:14.971Z,34.80
2023-04-28T07:45:14.890Z,34.76
2023-04-28T07:46:14.894Z,34.81
2023-04-28T07:47:15.076Z,35.17
2023-04-28T07:48:14.932Z,35.13
2023-04-28T07:49:14.966Z,35.84
2023-04-28T07:50:14.901Z,35.12
2023-04-28T07:51:15.127Z,34.95
2023-04-28T07:52:14.828Z,34.89
2023-04-28T07:53:14.847Z,34.89
2023-04-28T07:54:14.984Z,34.80
2023-04-28T07:55:14.808Z,34.83
2023-04-28T07:56:14.775Z,34.70
2023-04-28T07:57:15.030Z,34.71
2023-04-28T07:58:14.774Z,34.66
2023-04-28T07:59:14.765Z,34.65
2023-04-28T08:00:14.840Z,34.63
2023-04-28T08:01:14.801Z,34.62
2023-04-28T08:02:15.069Z,34.57
2023-04-28T08:03:14.970Z,34.54
2023-04-28T08:04:15.283Z,34.54
2023-04-28T08:05:14.918Z,34.59
2023-04-28T08:06:14.795Z,34.52
2023-04-28T08:07:15.045Z,34.57
2023-04-28T08:08:14.819Z,34.58
2023-04-28T08:09:14.797Z,34.52
2023-04-28T08:10:14.763Z,34.51
2023-04-28T08:11:14.771Z,34.49
2023-04-28T08:12:14.786Z,34.45
2023-04-28T08:13:14.774Z,34.42
2023-04-28T08:14:14.852Z,34.47
2023-04-28T08:15:16.012Z,34.45
2023-04-28T08:16:14.804Z,34.42
2023-04-28T08:17:16.064Z,34.36
2023-04-28T08:18:14.823Z,34.41
2023-04-28T08:19:14.772Z,34.38
2023-04-28T08:20:14.780Z,34.39
2023-04-28T08:21:14.743Z,34.37
2023-04-28T08:22:15.009Z,34.37
2023-04-28T08:23:14.752Z,34.37
2023-04-28T08:24:14.932Z,34.29
2023-04-28T08:25:14.763Z,34.30
2023-04-28T08:26:14.769Z,34.32
2023-04-28T08:27:14.750Z,34.29
2023-04-28T08:28:14.761Z,34.29
2023-04-28T08:29:14.757Z,34.29
2023-04-28T08:30:14.741Z,34.25
2023-04-28T08:31:14.788Z,34.24
2023-04-28T08:32:14.756Z,34.24
2023-04-28T08:33:14.777Z,34.22
2023-04-28T08:34:16.391Z,34.24
2023-04-28T08:35:14.782Z,34.21
2023-04-28T08:36:14.796Z,34.17
2023-04-28T08:37:14.774Z,34.21
2023-04-28T08:38:14.751Z,34.20
2023-04-28T08:39:14.736Z,34.20
2023-04-28T08:40:14.779Z,34.16
2023-04-28T08:41:14.778Z,34.17
2023-04-28T08:42:14.763Z,34.17
2023-04-28T08:43:14.782Z,34.16
2023-04-28T08:44:14.891Z,34.16
2023-04-28T08:45:14.737Z,34.15
2023-04-28T08:46:14.801Z,34.16
2023-04-28T08:47:14.812Z,34.15
2023-04-28T08:48:14.721Z,34.14
2023-04-28T08:49:14.740Z,34.13
2023-04-28T08:50:14.798Z,34.11
2023-04-28T08:51:14.792Z,34.30
2023-04-28T08:52:15.044Z,34.11
2023-04-28T08:53:14.754Z,34.12
2023-04-28T08:54:25.540Z,34.08
2023-04-28T08:55:15.736Z,34.08
2023-04-28T08:56:14.773Z,34.04
2023-04-28T08:57:15.113Z,34.02
2023-04-28T08:58:14.733Z,34.02
2023-04-28T08:59:14.699Z,34.01
2023-04-28T09:00:14.673Z,34.03
2023-04-28T09:01:14.683Z,33.98
2023-04-28T09:02:14.924Z,34.02
2023-04-28T09:03:14.799Z,33.96
2023-04-28T09:04:14.997Z,33.97
2023-04-28T09:05:14.772Z,33.98
2023-04-28T09:06:14.707Z,33.95
2023-04-28T09:07:14.650Z,33.93
2023-04-28T09:08:14.671Z,33.95
2023-04-28T09:09:14.705Z,33.99
2023-04-28T09:10:14.656Z,33.95
2023-04-28T09:11:14.646Z,33.95
2023-04-28T09:12:14.662Z,33.90
2023-04-28T09:13:14.640Z,33.97
2023-04-28T09:14:14.843Z,33.94
2023-04-28T09:15:14.646Z,33.93
2023-04-28T09:16:14.650Z,33.94
2023-04-28T09:17:14.633Z,33.90
2023-04-28T09:18:14.715Z,33.95
2023-04-28T09:19:14.610Z,33.97
2023-04-28T09:20:14.641Z,33.91
2023-04-28T09:21:14.596Z,33.95
2023-04-28T09:22:26.241Z,33.94
2023-04-28T09:23:15.594Z,33.93
2023-04-28T09:24:14.734Z,33.93
2023-04-28T09:25:14.568Z,33.89
2023-04-28T09:26:14.557Z,33.89
2023-04-28T09:27:14.590Z,33.92
2023-04-28T09:28:14.579Z,33.90
2023-04-28T09:29:14.547Z,33.90
2023-04-28T09:30:14.561Z,33.89
2023-04-28T09:31:14.522Z,33.88
2023-04-28T09:32:14.657Z,33.87
2023-04-28T09:33:14.615Z,33.84
2023-04-28T09:34:14.766Z,33.83
2023-04-28T09:35:14.557Z,33.83
2023-04-28T09:36:14.523Z,33.83
2023-04-28T09:37:14.508Z,33.84
2023-04-28T09:38:14.623Z,33.80
2023-04-28T09:39:14.476Z,33.83
2023-04-28T09:40:14.483Z,33.79
2023-04-28T09:41:14.511Z,33.82
2023-04-28T09:42:14.474Z,33.77
2023-04-28T09:43:21.499Z,33.75
2023-04-28T09:44:15.726Z,33.80
2023-04-28T09:45:14.484Z,33.75
2023-04-28T09:46:14.487Z,33.75
2023-04-28T09:47:14.488Z,33.87
2023-04-28T09:48:14.478Z,34.47
2023-04-28T09:49:14.437Z,35.21
2023-04-28T09:50:14.491Z,35.14
2023-04-28T09:51:14.427Z,36.31
2023-04-28T09:52:14.415Z,35.98
2023-04-28T09:53:14.414Z,35.08
2023-04-28T09:54:14.426Z,36.24
2023-04-28T09:55:14.387Z,35.38
2023-04-28T09:56:14.410Z,35.33
2023-04-28T09:57:14.406Z,35.24
2023-04-28T09:58:14.587Z,35.27
2023-04-28T09:59:14.356Z,35.33
2023-04-28T10:00:14.360Z,35.33
2023-04-28T10:01:14.490Z,35.42
2023-04-28T10:02:40.883Z,35.19
2023-04-28T10:03:15.580Z,35.29
2023-04-28T10:04:14.503Z,35.39
2023-04-28T10:05:14.554Z,35.26
2023-04-28T10:06:14.364Z,35.70
2023-04-28T10:07:14.354Z,35.65
2023-04-28T10:08:14.580Z,35.51
2023-04-28T10:09:14.321Z,35.44
2023-04-28T10:10:14.390Z,35.48
2023-04-28T10:11:14.317Z,35.44
2023-04-28T10:12:14.312Z,35.41
2023-04-28T10:13:14.353Z,35.40
2023-04-28T10:14:14.428Z,35.62
2023-04-28T10:15:14.427Z,35.58
2023-04-28T10:16:14.545Z,35.47
2023-04-28T10:17:14.536Z,35.46
2023-04-28T10:18:14.613Z,35.50
2023-04-28T10:19:14.673Z,35.60
2023-04-28T10:20:14.763Z,35.35
2023-04-28T10:21:14.826Z,35.36
2023-04-28T10:22:14.838Z,35.40
2023-04-28T10:23:14.868Z,35.50
2023-04-28T10:24:14.914Z,35.46
2023-04-28T10:25:14.966Z,35.33
2023-04-28T10:26:16.129Z,35.29
2023-04-28T10:27:15.078Z,35.28
2023-04-28T10:28:15.605Z,35.28
2023-04-28T10:29:15.215Z,35.37
2023-04-28T10:30:26.323Z,35.39
2023-04-28T10:31:16.276Z,35.70
2023-04-28T10:32:15.227Z,35.75
2023-04-28T10:33:15.248Z,35.64
2023-04-28T10:34:15.194Z,35.85
2023-04-28T10:35:15.302Z,35.80
2023-04-28T10:36:17.685Z,35.78
2023-04-28T10:37:15.193Z,35.98
2023-04-28T10:38:15.198Z,37.30
2023-04-28T10:39:15.240Z,36.37
2023-04-28T10:40:15.186Z,36.43
2023-04-28T10:41:15.163Z,36.42
2023-04-28T10:42:15.138Z,38.13
2023-04-28T10:43:15.172Z,37.10
2023-04-28T10:44:15.112Z,36.56
2023-04-28T10:45:15.101Z,36.28
2023-04-28T10:46:15.153Z,36.20
2023-04-28T10:47:15.110Z,36.06
2023-04-28T10:48:15.637Z,36.02
2023-04-28T10:49:15.101Z,35.98
2023-04-28T10:50:15.122Z,35.94
2023-04-28T10:51:15.102Z,35.99
2023-04-28T10:52:15.588Z,35.96
2023-04-28T10:53:15.047Z,35.92
2023-04-28T10:54:15.060Z,36.00
2023-04-28T10:55:21.985Z,35.96
2023-04-28T10:56:16.073Z,35.98
2023-04-28T10:57:15.012Z,35.94
2023-04-28T10:58:15.013Z,35.93
2023-04-28T10:59:15.123Z,35.90
2023-04-28T11:00:15.018Z,35.82
2023-04-28T11:01:15.082Z,35.79
2023-04-28T11:02:15.090Z,35.72
2023-04-28T11:03:15.145Z,35.68
2023-04-28T11:04:15.250Z,35.66
2023-04-28T11:05:15.413Z,35.60
2023-04-28T11:06:15.145Z,35.57
2023-04-28T11:07:15.238Z,35.57
2023-04-28T11:08:15.223Z,35.54
2023-04-28T11:09:15.687Z,35.49
2023-04-28T11:10:15.374Z,35.45
2023-04-28T11:11:15.400Z,35.49
2023-04-28T11:12:15.400Z,35.40
2023-04-28T11:13:15.429Z,35.41
2023-04-28T11:14:15.458Z,35.33
2023-04-28T11:15:15.507Z,35.30
2023-04-28T11:16:15.569Z,35.29
2023-04-28T11:17:15.535Z,35.25
2023-04-28T11:18:15.489Z,35.25
2023-04-28T11:19:15.554Z,35.23
2023-04-28T11:20:15.482Z,35.17
2023-04-28T11:21:15.472Z,35.18
2023-04-28T11:22:15.482Z,35.13
2023-04-28T11:23:15.503Z,35.10
2023-04-28T11:24:15.509Z,35.13
2023-04-28T11:25:15.522Z,35.08
2023-04-28T11:26:15.552Z,35.06
2023-04-28T11:27:15.529Z,35.04
2023-04-28T11:28:15.597Z,34.97
2023-04-28T11:29:15.741Z,34.97
2023-04-28T11:30:15.621Z,34.96
2023-04-28T11:31:15.610Z,34.95
2023-04-28T11:32:15.606Z,34.94
2023-04-28T11:33:15.649Z,34.93
2023-04-28T11:34:16.060Z,34.88
2023-04-28T11:35:16.006Z,34.89
2023-04-28T11:36:15.634Z,34.89
2023-04-28T11:37:16.058Z,34.85
2023-04-28T11:38:16.142Z,34.85
2023-04-28T11:39:15.653Z,34.83
2023-04-28T11:40:15.687Z,34.84
2023-04-28T11:41:15.726Z,34.79
2023-04-28T11:42:15.705Z,34.77
2023-04-28T11:43:15.704Z,34.77
2023-04-28T11:44:15.720Z,34.74
2023-04-28T11:45:15.733Z,34.74
2023-04-28T11:46:15.728Z,34.71
2023-04-28T11:47:15.737Z,34.70
2023-04-28T11:48:15.739Z,34.69
2023-04-28T11:49:15.772Z,34.71
2023-04-28T11:50:15.803Z,34.66
2023-04-28T11:51:15.804Z,34.69
2023-04-28T11:52:15.843Z,34.68
2023-04-28T11:53:16.134Z,34.65
2023-04-28T11:54:15.848Z,34.66
2023-04-28T11:55:15.900Z,34.65
2023-04-28T11:56:15.871Z,34.61
2023-04-28T11:57:15.935Z,34.57
2023-04-28T11:58:15.964Z,34.63
2023-04-28T11:59:16.096Z,34.65
2023-04-28T12:00:15.998Z,34.59
2023-04-28T12:01:16.043Z,34.54
2023-04-28T12:02:16.064Z,34.57
2023-04-28T12:03:16.195Z,34.54
2023-04-28T12:04:16.195Z,34.58
2023-04-28T12:05:16.101Z,34.53
2023-04-28T12:06:16.082Z,34.57
2023-04-28T12:07:16.112Z,34.56
2023-04-28T12:08:16.124Z,34.59
2023-04-28T12:09:16.142Z,34.54
2023-04-28T12:10:16.186Z,34.58
2023-04-28T12:11:18.539Z,34.60
2023-04-28T12:12:17.284Z,34.57
2023-04-28T12:13:16.161Z,34.57
2023-04-28T12:14:16.139Z,34.57
2023-04-28T12:15:17.507Z,34.59
2023-04-28T12:16:16.184Z,34.59
2023-04-28T12:17:16.157Z,34.58
2023-04-28T12:18:16.100Z,34.59
2023-04-28T12:19:16.110Z,34.57
2023-04-28T12:20:16.131Z,34.62
2023-04-28T12:21:16.072Z,34.60
2023-04-28T12:22:16.103Z,34.59
2023-04-28T12:23:16.147Z,34.55
2023-04-28T12:24:16.078Z,34.54
2023-04-28T12:25:16.094Z,34.53
2023-04-28T12:26:16.041Z,34.54
2023-04-28T12:27:16.058Z,34.57
2023-04-28T12:28:16.051Z,34.60
2023-04-28T12:29:16.064Z,34.61
2023-04-28T12:30:16.061Z,34.57
2023-04-28T12:31:16.090Z,34.63
2023-04-28T12:32:16.029Z,34.60
2023-04-28T12:33:16.035Z,34.62
2023-04-28T12:34:16.016Z,34.60
2023-04-28T12:35:16.025Z,34.63
2023-04-28T12:36:15.988Z,34.65
2023-04-28T12:37:16.005Z,34.60
2023-04-28T12:38:16.134Z,34.59
2023-04-28T12:39:15.992Z,34.58
2023-04-28T12:40:15.984Z,34.62
2023-04-28T12:41:15.952Z,34.62
2023-04-28T12:42:15.989Z,34.59
2023-04-28T12:43:15.975Z,34.54
2023-04-28T12:44:15.968Z,34.62
2023-04-28T12:45:15.949Z,34.58
2023-04-28T12:46:16.000Z,34.62
2023-04-28T12:47:15.936Z,34.59
2023-04-28T12:48:15.939Z,34.63
2023-04-28T12:49:15.939Z,34.61
2023-04-28T12:50:16.001Z,34.63
2023-04-28T12:51:16.013Z,34.64
2023-04-28T12:52:16.004Z,34.63
2023-04-28T12:53:16.027Z,34.59